sensor_id;sensor_type;location;lat;lon;timestamp;P1;durP1;ratioP1;P2;durP2;ratioP2
27644;SDS011;15054;57.152;-2.118;2022-08-07T00:02:11;2.72;;;1.30;;
27644;SDS011;15054;57.152;-2.118;2022-08-07T00:04:58;2.38;;;1.17;;
27644;SDS011;15054;57.152;-2.118;2022-08-07T00:07:25;4.47;;;1.20;;
27644;SDS011;15054;57.152;-2.118;2022-08-07T00:10:06;5.28;;;1.40;;
27644;SDS011;15054;57.152;-2.118;2022-08-07T00:12:53;4.32;;;1.58;;
27644;SDS011;15054;57.152;-2.118;2022-08-07T00:15:27;5.63;;;1.40;;
27644;SDS011;15054;57.152;-2.118;2022-08-07T00:18:19;1.85;;;0.90;;
27644;SDS011;15054;57.152;-2.118;2022-08-07T00:20:49;6.35;;;1.40;;
27644;SDS011;15054;57.152;-2.118;2022-08-07T00:23:23;3.53;;;1.40;;
27644;SDS011;15054;57.152;-2.118;2022-08-07T00:25:54;1.95;;;1.20;;
27644;SDS011;15054;57.152;-2.118;2022-08-07T00:28:30;3.78;;;1.20;;
27644;SDS011;15054;57.152;-2.118;2022-08-07T00:31:18;2.08;;;1.00;;
27644;SDS011;15054;57.152;-2.118;2022-08-07T00:33:45;5.20;;;1.33;;
27644;SDS011;15054;57.152;-2.118;2022-08-07T00:36:13;1.92;;;1.08;;
27644;SDS011;15054;57.152;-2.118;2022-08-07T00:38:42;3.17;;;1.17;;
27644;SDS011;15054;57.152;-2.118;2022-08-07T00:41:09;1.83;;;1.63;;
27644;SDS011;15054;57.152;-2.118;2022-08-07T00:43:41;3.47;;;1.02;;
27644;SDS011;15054;57.152;-2.118;2022-08-07T00:46:28;4.15;;;1.15;;
27644;SDS011;15054;57.152;-2.118;2022-08-07T00:48:59;4.55;;;1.20;;
27644;SDS011;15054;57.152;-2.118;2022-08-07T00:51:28;4.88;;;1.30;;
27644;SDS011;15054;57.152;-2.118;2022-08-07T00:54:16;2.08;;;0.98;;
27644;SDS011;15054;57.152;-2.118;2022-08-07T00:56:46;5.03;;;1.30;;
27644;SDS011;15054;57.152;-2.118;2022-08-07T00:59:15;3.40;;;1.02;;
27644;SDS011;15054;57.152;-2.118;2022-08-07T01:01:57;2.25;;;1.10;;
27644;SDS011;15054;57.152;-2.118;2022-08-07T01:04:26;2.17;;;1.20;;
27644;SDS011;15054;57.152;-2.118;2022-08-07T01:06:57;5.22;;;1.20;;
27644;SDS011;15054;57.152;-2.118;2022-08-07T01:09:25;1.40;;;1.02;;
27644;SDS011;15054;57.152;-2.118;2022-08-07T01:12:13;5.07;;;1.25;;
27644;SDS011;15054;57.152;-2.118;2022-08-07T01:14:57;0.82;;;0.80;;
27644;SDS011;15054;57.152;-2.118;2022-08-07T01:17:29;5.03;;;1.48;;
27644;SDS011;15054;57.152;-2.118;2022-08-07T01:20:00;3.45;;;1.20;;
27644;SDS011;15054;57.152;-2.118;2022-08-07T01:22:42;4.03;;;1.13;;
27644;SDS011;15054;57.152;-2.118;2022-08-07T01:25:27;1.33;;;1.15;;
27644;SDS011;15054;57.152;-2.118;2022-08-07T01:28:15;2.95;;;1.20;;
27644;SDS011;15054;57.152;-2.118;2022-08-07T01:30:45;5.32;;;1.60;;
27644;SDS011;15054;57.152;-2.118;2022-08-07T01:33:18;4.30;;;1.38;;
27644;SDS011;15054;57.152;-2.118;2022-08-07T01:35:49;2.67;;;1.33;;
27644;SDS011;15054;57.152;-2.118;2022-08-07T01:38:22;4.47;;;1.10;;
27644;SDS011;15054;57.152;-2.118;2022-08-07T01:40:59;4.28;;;1.23;;
27644;SDS011;15054;57.152;-2.118;2022-08-07T01:43:28;3.53;;;1.48;;
27644;SDS011;15054;57.152;-2.118;2022-08-07T01:46:03;1.85;;;1.02;;
27644;SDS011;15054;57.152;-2.118;2022-08-07T01:48:39;4.50;;;1.65;;
27644;SDS011;15054;57.152;-2.118;2022-08-07T01:51:18;4.00;;;1.17;;
27644;SDS011;15054;57.152;-2.118;2022-08-07T01:54:07;2.28;;;1.02;;
27644;SDS011;15054;57.152;-2.118;2022-08-07T01:56:56;2.20;;;1.10;;
27644;SDS011;15054;57.152;-2.118;2022-08-07T01:59:36;5.65;;;1.35;;
27644;SDS011;15054;57.152;-2.118;2022-08-07T02:02:31;2.30;;;1.08;;
27644;SDS011;15054;57.152;-2.118;2022-08-07T02:05:31;3.97;;;1.15;;
27644;SDS011;15054;57.152;-2.118;2022-08-07T02:08:18;5.65;;;1.20;;
27644;SDS011;15054;57.152;-2.118;2022-08-07T02:10:49;3.65;;;1.33;;
27644;SDS011;15054;57.152;-2.118;2022-08-07T02:13:25;2.33;;;1.23;;
27644;SDS011;15054;57.152;-2.118;2022-08-07T02:16:16;2.78;;;1.10;;
27644;SDS011;15054;57.152;-2.118;2022-08-07T02:19:00;3.88;;;1.10;;
27644;SDS011;15054;57.152;-2.118;2022-08-07T02:21:50;3.08;;;1.10;;
27644;SDS011;15054;57.152;-2.118;2022-08-07T02:24:22;3.83;;;1.30;;
27644;SDS011;15054;57.152;-2.118;2022-08-07T02:26:54;2.60;;;1.20;;
27644;SDS011;15054;57.152;-2.118;2022-08-07T02:29:27;2.97;;;1.40;;
27644;SDS011;15054;57.152;-2.118;2022-08-07T02:31:58;5.63;;;1.33;;
27644;SDS011;15054;57.152;-2.118;2022-08-07T02:34:27;4.47;;;1.27;;
27644;SDS011;15054;57.152;-2.118;2022-08-07T02:36:58;3.72;;;1.30;;
27644;SDS011;15054;57.152;-2.118;2022-08-07T02:39:35;2.95;;;1.15;;
27644;SDS011;15054;57.152;-2.118;2022-08-07T02:42:28;4.03;;;1.40;;
27644;SDS011;15054;57.152;-2.118;2022-08-07T02:44:58;2.15;;;1.35;;
27644;SDS011;15054;57.152;-2.118;2022-08-07T02:47:47;2.92;;;1.23;;
27644;SDS011;15054;57.152;-2.118;2022-08-07T02:50:17;2.05;;;1.13;;
27644;SDS011;15054;57.152;-2.118;2022-08-07T02:52:55;2.17;;;1.20;;
27644;SDS011;15054;57.152;-2.118;2022-08-07T02:55:33;4.82;;;1.40;;
27644;SDS011;15054;57.152;-2.118;2022-08-07T02:58:25;3.30;;;1.50;;
27644;SDS011;15054;57.152;-2.118;2022-08-07T03:00:59;2.72;;;1.10;;
27644;SDS011;15054;57.152;-2.118;2022-08-07T03:03:29;3.25;;;1.23;;
27644;SDS011;15054;57.152;-2.118;2022-08-07T03:06:21;2.53;;;1.40;;
27644;SDS011;15054;57.152;-2.118;2022-08-07T03:08:58;2.17;;;1.33;;
27644;SDS011;15054;57.152;-2.118;2022-08-07T03:11:27;5.13;;;1.35;;
27644;SDS011;15054;57.152;-2.118;2022-08-07T03:14:04;1.90;;;1.08;;
27644;SDS011;15054;57.152;-2.118;2022-08-07T03:16:33;3.20;;;1.17;;
27644;SDS011;15054;57.152;-2.118;2022-08-07T03:19:04;3.83;;;1.20;;
27644;SDS011;15054;57.152;-2.118;2022-08-07T03:21:34;3.22;;;0.90;;
27644;SDS011;15054;57.152;-2.118;2022-08-07T03:24:02;4.40;;;0.93;;
27644;SDS011;15054;57.152;-2.118;2022-08-07T03:26:51;4.03;;;1.20;;
27644;SDS011;15054;57.152;-2.118;2022-08-07T03:29:33;7.18;;;1.50;;
27644;SDS011;15054;57.152;-2.118;2022-08-07T03:32:18;2.17;;;0.95;;
27644;SDS011;15054;57.152;-2.118;2022-08-07T03:34:57;1.33;;;0.82;;
27644;SDS011;15054;57.152;-2.118;2022-08-07T03:37:47;1.83;;;1.00;;
27644;SDS011;15054;57.152;-2.118;2022-08-07T03:40:27;3.70;;;1.10;;
27644;SDS011;15054;57.152;-2.118;2022-08-07T03:43:03;2.88;;;1.17;;
27644;SDS011;15054;57.152;-2.118;2022-08-07T03:45:44;2.42;;;0.80;;
27644;SDS011;15054;57.152;-2.118;2022-08-07T03:48:18;3.55;;;1.13;;
27644;SDS011;15054;57.152;-2.118;2022-08-07T03:50:46;2.58;;;0.60;;
27644;SDS011;15054;57.152;-2.118;2022-08-07T03:53:23;2.42;;;1.23;;
27644;SDS011;15054;57.152;-2.118;2022-08-07T03:56:13;2.75;;;1.10;;
27644;SDS011;15054;57.152;-2.118;2022-08-07T03:59:00;2.45;;;0.82;;
27644;SDS011;15054;57.152;-2.118;2022-08-07T04:01:41;2.65;;;1.17;;
27644;SDS011;15054;57.152;-2.118;2022-08-07T04:04:17;1.27;;;1.00;;
27644;SDS011;15054;57.152;-2.118;2022-08-07T04:06:51;2.40;;;1.08;;
27644;SDS011;15054;57.152;-2.118;2022-08-07T04:09:22;2.38;;;0.85;;
27644;SDS011;15054;57.152;-2.118;2022-08-07T04:11:54;3.67;;;1.00;;
27644;SDS011;15054;57.152;-2.118;2022-08-07T04:14:44;2.67;;;1.10;;
27644;SDS011;15054;57.152;-2.118;2022-08-07T04:17:16;2.75;;;0.90;;
27644;SDS011;15054;57.152;-2.118;2022-08-07T04:20:09;4.32;;;1.55;;
27644;SDS011;15054;57.152;-2.118;2022-08-07T04:22:40;3.25;;;1.38;;
27644;SDS011;15054;57.152;-2.118;2022-08-07T04:25:21;5.65;;;1.13;;
27644;SDS011;15054;57.152;-2.118;2022-08-07T04:27:56;1.90;;;1.13;;
27644;SDS011;15054;57.152;-2.118;2022-08-07T04:30:28;3.97;;;1.30;;
27644;SDS011;15054;57.152;-2.118;2022-08-07T04:33:19;0.85;;;0.85;;
27644;SDS011;15054;57.152;-2.118;2022-08-07T04:35:49;2.85;;;1.27;;
27644;SDS011;15054;57.152;-2.118;2022-08-07T04:38:25;1.83;;;0.80;;
27644;SDS011;15054;57.152;-2.118;2022-08-07T04:40:55;2.97;;;1.35;;
27644;SDS011;15054;57.152;-2.118;2022-08-07T04:43:30;3.53;;;1.00;;
27644;SDS011;15054;57.152;-2.118;2022-08-07T04:52:55;4.50;;;1.13;;
27644;SDS011;15054;57.152;-2.118;2022-08-07T04:58:44;5.97;;;1.40;;
27644;SDS011;15054;57.152;-2.118;2022-08-07T05:01:46;4.55;;;1.30;;
27644;SDS011;15054;57.152;-2.118;2022-08-07T05:04:34;3.60;;;1.10;;
27644;SDS011;15054;57.152;-2.118;2022-08-07T05:07:18;2.67;;;1.23;;
27644;SDS011;15054;57.152;-2.118;2022-08-07T05:10:05;2.75;;;0.90;;
27644;SDS011;15054;57.152;-2.118;2022-08-07T05:12:41;1.65;;;0.80;;
27644;SDS011;15054;57.152;-2.118;2022-08-07T05:15:23;2.10;;;1.00;;
27644;SDS011;15054;57.152;-2.118;2022-08-07T05:18:00;2.22;;;0.93;;
27644;SDS011;15054;57.152;-2.118;2022-08-07T05:20:44;3.10;;;1.17;;
27644;SDS011;15054;57.152;-2.118;2022-08-07T05:23:20;2.95;;;1.10;;
27644;SDS011;15054;57.152;-2.118;2022-08-07T05:25:59;2.47;;;0.93;;
27644;SDS011;15054;57.152;-2.118;2022-08-07T05:28:47;3.47;;;1.05;;
27644;SDS011;15054;57.152;-2.118;2022-08-07T05:34:00;2.47;;;1.00;;
27644;SDS011;15054;57.152;-2.118;2022-08-07T05:36:39;2.72;;;1.05;;
27644;SDS011;15054;57.152;-2.118;2022-08-07T05:39:16;2.10;;;1.13;;
27644;SDS011;15054;57.152;-2.118;2022-08-07T05:42:05;1.45;;;0.90;;
27644;SDS011;15054;57.152;-2.118;2022-08-07T05:44:41;2.05;;;0.82;;
27644;SDS011;15054;57.152;-2.118;2022-08-07T05:47:28;7.30;;;1.05;;
27644;SDS011;15054;57.152;-2.118;2022-08-07T05:50:16;2.22;;;1.00;;
27644;SDS011;15054;57.152;-2.118;2022-08-07T05:52:45;4.57;;;0.90;;
27644;SDS011;15054;57.152;-2.118;2022-08-07T05:55:13;1.88;;;1.00;;
27644;SDS011;15054;57.152;-2.118;2022-08-07T05:57:43;1.75;;;0.82;;
27644;SDS011;15054;57.152;-2.118;2022-08-07T06:00:15;3.80;;;1.00;;
27644;SDS011;15054;57.152;-2.118;2022-08-07T06:02:56;3.22;;;0.90;;
27644;SDS011;15054;57.152;-2.118;2022-08-07T06:05:26;1.92;;;0.88;;
27644;SDS011;15054;57.152;-2.118;2022-08-07T06:08:03;4.20;;;0.73;;
27644;SDS011;15054;57.152;-2.118;2022-08-07T06:10:51;2.53;;;1.20;;
27644;SDS011;15054;57.152;-2.118;2022-08-07T06:13:21;2.85;;;0.90;;
27644;SDS011;15054;57.152;-2.118;2022-08-07T06:16:09;1.73;;;0.82;;
27644;SDS011;15054;57.152;-2.118;2022-08-07T06:18:40;1.67;;;1.02;;
27644;SDS011;15054;57.152;-2.118;2022-08-07T06:21:18;1.70;;;0.80;;
27644;SDS011;15054;57.152;-2.118;2022-08-07T06:24:06;2.78;;;1.08;;
27644;SDS011;15054;57.152;-2.118;2022-08-07T06:26:54;4.00;;;1.10;;
27644;SDS011;15054;57.152;-2.118;2022-08-07T06:29:27;1.23;;;0.75;;
27644;SDS011;15054;57.152;-2.118;2022-08-07T06:31:55;1.33;;;0.80;;
27644;SDS011;15054;57.152;-2.118;2022-08-07T06:34:23;1.38;;;0.60;;
27644;SDS011;15054;57.152;-2.118;2022-08-07T06:36:57;1.50;;;0.60;;
27644;SDS011;15054;57.152;-2.118;2022-08-07T06:39:31;1.55;;;0.80;;
27644;SDS011;15054;57.152;-2.118;2022-08-07T06:42:32;1.63;;;0.95;;
27644;SDS011;15054;57.152;-2.118;2022-08-07T06:45:21;2.25;;;0.80;;
27644;SDS011;15054;57.152;-2.118;2022-08-07T06:47:59;1.60;;;0.52;;
27644;SDS011;15054;57.152;-2.118;2022-08-07T06:50:37;2.28;;;0.80;;
27644;SDS011;15054;57.152;-2.118;2022-08-07T06:53:10;1.77;;;0.80;;
27644;SDS011;15054;57.152;-2.118;2022-08-07T06:56:01;0.60;;;0.60;;
27644;SDS011;15054;57.152;-2.118;2022-08-07T06:58:41;2.38;;;0.80;;
27644;SDS011;15054;57.152;-2.118;2022-08-07T07:01:30;1.17;;;0.65;;
27644;SDS011;15054;57.152;-2.118;2022-08-07T07:04:16;1.52;;;0.70;;
27644;SDS011;15054;57.152;-2.118;2022-08-07T07:09:44;0.82;;;0.50;;
27644;SDS011;15054;57.152;-2.118;2022-08-07T07:12:16;0.73;;;0.60;;
27644;SDS011;15054;57.152;-2.118;2022-08-07T07:14:59;1.83;;;0.50;;
27644;SDS011;15054;57.152;-2.118;2022-08-07T07:17:33;0.98;;;0.60;;
27644;SDS011;15054;57.152;-2.118;2022-08-07T07:20:12;0.70;;;0.45;;
27644;SDS011;15054;57.152;-2.118;2022-08-07T07:22:44;0.77;;;0.40;;
27644;SDS011;15054;57.152;-2.118;2022-08-07T07:25:33;2.13;;;0.60;;
27644;SDS011;15054;57.152;-2.118;2022-08-07T07:28:32;1.90;;;0.50;;
27644;SDS011;15054;57.152;-2.118;2022-08-07T07:31:27;2.10;;;0.50;;
27644;SDS011;15054;57.152;-2.118;2022-08-07T07:34:11;3.63;;;0.50;;
27644;SDS011;15054;57.152;-2.118;2022-08-07T07:36:43;0.50;;;0.50;;
27644;SDS011;15054;57.152;-2.118;2022-08-07T07:39:20;0.52;;;0.47;;
27644;SDS011;15054;57.152;-2.118;2022-08-07T07:41:51;2.70;;;0.50;;
27644;SDS011;15054;57.152;-2.118;2022-08-07T07:44:41;0.95;;;0.57;;
27644;SDS011;15054;57.152;-2.118;2022-08-07T07:47:15;0.57;;;0.57;;
27644;SDS011;15054;57.152;-2.118;2022-08-07T07:49:50;1.42;;;0.77;;
27644;SDS011;15054;57.152;-2.118;2022-08-07T07:52:38;1.55;;;0.80;;
27644;SDS011;15054;57.152;-2.118;2022-08-07T07:55:12;0.93;;;0.60;;
27644;SDS011;15054;57.152;-2.118;2022-08-07T07:57:48;2.53;;;0.63;;
27644;SDS011;15054;57.152;-2.118;2022-08-07T08:00:24;0.80;;;0.57;;
27644;SDS011;15054;57.152;-2.118;2022-08-07T08:03:06;0.82;;;0.50;;
27644;SDS011;15054;57.152;-2.118;2022-08-07T08:05:56;0.68;;;0.60;;
27644;SDS011;15054;57.152;-2.118;2022-08-07T08:08:23;0.85;;;0.50;;
27644;SDS011;15054;57.152;-2.118;2022-08-07T08:11:02;0.82;;;0.50;;
27644;SDS011;15054;57.152;-2.118;2022-08-07T08:13:40;1.35;;;0.50;;
27644;SDS011;15054;57.152;-2.118;2022-08-07T08:16:31;1.20;;;0.43;;
27644;SDS011;15054;57.152;-2.118;2022-08-07T08:19:09;0.30;;;0.30;;
27644;SDS011;15054;57.152;-2.118;2022-08-07T08:21:59;0.60;;;0.40;;
27644;SDS011;15054;57.152;-2.118;2022-08-07T08:24:46;0.70;;;0.30;;
27644;SDS011;15054;57.152;-2.118;2022-08-07T08:27:56;0.80;;;0.30;;
27644;SDS011;15054;57.152;-2.118;2022-08-07T08:30:29;2.10;;;0.40;;
27644;SDS011;15054;57.152;-2.118;2022-08-07T08:33:00;0.38;;;0.20;;
27644;SDS011;15054;57.152;-2.118;2022-08-07T08:35:36;1.33;;;0.20;;
27644;SDS011;15054;57.152;-2.118;2022-08-07T08:38:16;0.63;;;0.20;;
27644;SDS011;15054;57.152;-2.118;2022-08-07T08:40:53;0.20;;;0.20;;
27644;SDS011;15054;57.152;-2.118;2022-08-07T08:43:36;2.33;;;0.30;;
27644;SDS011;15054;57.152;-2.118;2022-08-07T08:49:06;2.45;;;0.40;;
27644;SDS011;15054;57.152;-2.118;2022-08-07T08:52:45;0.43;;;0.30;;
27644;SDS011;15054;57.152;-2.118;2022-08-07T08:54:58;0.20;;;0.20;;
27644;SDS011;15054;57.152;-2.118;2022-08-07T08:57:41;0.47;;;0.30;;
27644;SDS011;15054;57.152;-2.118;2022-08-07T09:00:15;0.10;;;0.10;;
27644;SDS011;15054;57.152;-2.118;2022-08-07T09:02:50;0.43;;;0.20;;
27644;SDS011;15054;57.152;-2.118;2022-08-07T09:08:14;0.95;;;0.30;;
27644;SDS011;15054;57.152;-2.118;2022-08-07T09:14:13;0.80;;;0.20;;
27644;SDS011;15054;57.152;-2.118;2022-08-07T09:17:03;0.38;;;0.30;;
27644;SDS011;15054;57.152;-2.118;2022-08-07T09:22:25;0.20;;;0.20;;
27644;SDS011;15054;57.152;-2.118;2022-08-07T09:25:25;0.30;;;0.30;;
27644;SDS011;15054;57.152;-2.118;2022-08-07T09:28:38;1.92;;;0.17;;
27644;SDS011;15054;57.152;-2.118;2022-08-07T09:34:10;0.10;;;0.10;;
27644;SDS011;15054;57.152;-2.118;2022-08-07T09:39:44;0.10;;;0.10;;
27644;SDS011;15054;57.152;-2.118;2022-08-07T09:42:33;0.00;;;0.00;;
27644;SDS011;15054;57.152;-2.118;2022-08-07T09:54:45;0.15;;;0.10;;
27644;SDS011;15054;57.152;-2.118;2022-08-07T09:57:38;0.10;;;0.00;;
27644;SDS011;15054;57.152;-2.118;2022-08-07T10:03:45;0.22;;;0.00;;
27644;SDS011;15054;57.152;-2.118;2022-08-07T10:24:49;0.28;;;0.10;;
27644;SDS011;15054;57.152;-2.118;2022-08-07T10:36:03;0.00;;;0.00;;
27644;SDS011;15054;57.152;-2.118;2022-08-07T10:41:34;0.20;;;0.10;;
27644;SDS011;15054;57.152;-2.118;2022-08-07T10:47:39;0.30;;;0.10;;
27644;SDS011;15054;57.152;-2.118;2022-08-07T10:50:22;0.57;;;0.22;;
27644;SDS011;15054;57.152;-2.118;2022-08-07T10:59:19;0.10;;;0.10;;
27644;SDS011;15054;57.152;-2.118;2022-08-07T11:08:21;0.00;;;0.00;;
27644;SDS011;15054;57.152;-2.118;2022-08-07T11:11:08;1.00;;;0.10;;
27644;SDS011;15054;57.152;-2.118;2022-08-07T11:13:52;2.08;;;0.10;;
27644;SDS011;15054;57.152;-2.118;2022-08-07T11:22:46;0.10;;;0.10;;
27644;SDS011;15054;57.152;-2.118;2022-08-07T11:28:44;0.30;;;0.30;;
27644;SDS011;15054;57.152;-2.118;2022-08-07T11:42:40;0.08;;;0.00;;
27644;SDS011;15054;57.152;-2.118;2022-08-07T11:48:11;0.10;;;0.10;;
27644;SDS011;15054;57.152;-2.118;2022-08-07T11:51:46;0.00;;;0.00;;
27644;SDS011;15054;57.152;-2.118;2022-08-07T11:54:41;0.00;;;0.00;;
27644;SDS011;15054;57.152;-2.118;2022-08-07T11:57:21;0.10;;;0.10;;
27644;SDS011;15054;57.152;-2.118;2022-08-07T12:00:19;0.00;;;0.00;;
27644;SDS011;15054;57.152;-2.118;2022-08-07T12:16:03;0.00;;;0.00;;
27644;SDS011;15054;57.152;-2.118;2022-08-07T12:24:50;0.10;;;0.10;;
27644;SDS011;15054;57.152;-2.118;2022-08-07T12:28:03;0.20;;;0.20;;
27644;SDS011;15054;57.152;-2.118;2022-08-07T12:30:38;0.47;;;0.10;;
27644;SDS011;15054;57.152;-2.118;2022-08-07T12:33:13;0.38;;;0.00;;
27644;SDS011;15054;57.152;-2.118;2022-08-07T12:35:56;0.55;;;0.20;;
27644;SDS011;15054;57.152;-2.118;2022-08-07T12:38:27;0.28;;;0.08;;
27644;SDS011;15054;57.152;-2.118;2022-08-07T12:41:12;0.10;;;0.10;;
27644;SDS011;15054;57.152;-2.118;2022-08-07T12:43:41;0.20;;;0.00;;
27644;SDS011;15054;57.152;-2.118;2022-08-07T12:47:17;0.20;;;0.08;;
27644;SDS011;15054;57.152;-2.118;2022-08-07T12:57:43;0.20;;;0.10;;
27644;SDS011;15054;57.152;-2.118;2022-08-07T13:00:30;0.10;;;0.10;;
27644;SDS011;15054;57.152;-2.118;2022-08-07T13:15:25;0.15;;;0.08;;
27644;SDS011;15054;57.152;-2.118;2022-08-07T13:18:31;0.20;;;0.10;;
27644;SDS011;15054;57.152;-2.118;2022-08-07T13:27:12;0.10;;;0.00;;
27644;SDS011;15054;57.152;-2.118;2022-08-07T13:30:11;0.10;;;0.00;;
27644;SDS011;15054;57.152;-2.118;2022-08-07T13:36:18;0.35;;;0.10;;
27644;SDS011;15054;57.152;-2.118;2022-08-07T13:39:04;0.10;;;0.10;;
27644;SDS011;15054;57.152;-2.118;2022-08-07T13:41:53;0.03;;;0.00;;
27644;SDS011;15054;57.152;-2.118;2022-08-07T13:44:22;0.10;;;0.10;;
27644;SDS011;15054;57.152;-2.118;2022-08-07T13:47:02;1.00;;;0.20;;
27644;SDS011;15054;57.152;-2.118;2022-08-07T13:49:37;0.57;;;0.10;;
27644;SDS011;15054;57.152;-2.118;2022-08-07T13:52:29;0.10;;;0.10;;
27644;SDS011;15054;57.152;-2.118;2022-08-07T13:55:15;0.00;;;0.00;;
27644;SDS011;15054;57.152;-2.118;2022-08-07T13:57:57;0.17;;;0.17;;
27644;SDS011;15054;57.152;-2.118;2022-08-07T14:00:57;1.15;;;0.40;;
27644;SDS011;15054;57.152;-2.118;2022-08-07T14:03:34;0.43;;;0.22;;
27644;SDS011;15054;57.152;-2.118;2022-08-07T14:06:47;0.40;;;0.20;;
27644;SDS011;15054;57.152;-2.118;2022-08-07T14:09:17;0.32;;;0.25;;
27644;SDS011;15054;57.152;-2.118;2022-08-07T14:12:18;0.20;;;0.10;;
27644;SDS011;15054;57.152;-2.118;2022-08-07T14:14:55;1.27;;;0.32;;
27644;SDS011;15054;57.152;-2.118;2022-08-07T14:17:29;0.20;;;0.10;;
27644;SDS011;15054;57.152;-2.118;2022-08-07T14:20:22;0.40;;;0.30;;
27644;SDS011;15054;57.152;-2.118;2022-08-07T14:26:09;0.10;;;0.10;;
27644;SDS011;15054;57.152;-2.118;2022-08-07T14:28:56;0.40;;;0.30;;
27644;SDS011;15054;57.152;-2.118;2022-08-07T14:31:36;0.90;;;0.20;;
27644;SDS011;15054;57.152;-2.118;2022-08-07T14:34:18;0.38;;;0.28;;
27644;SDS011;15054;57.152;-2.118;2022-08-07T14:36:55;0.68;;;0.25;;
27644;SDS011;15054;57.152;-2.118;2022-08-07T14:39:29;0.50;;;0.28;;
27644;SDS011;15054;57.152;-2.118;2022-08-07T14:42:20;0.40;;;0.20;;
27644;SDS011;15054;57.152;-2.118;2022-08-07T14:45:00;0.60;;;0.20;;
27644;SDS011;15054;57.152;-2.118;2022-08-07T14:47:48;0.15;;;0.15;;
27644;SDS011;15054;57.152;-2.118;2022-08-07T14:50:41;0.55;;;0.32;;
27644;SDS011;15054;57.152;-2.118;2022-08-07T14:53:16;0.93;;;0.40;;
27644;SDS011;15054;57.152;-2.118;2022-08-07T14:56:06;0.20;;;0.20;;
27644;SDS011;15054;57.152;-2.118;2022-08-07T14:58:40;0.73;;;0.22;;
27644;SDS011;15054;57.152;-2.118;2022-08-07T15:01:24;0.55;;;0.20;;
27644;SDS011;15054;57.152;-2.118;2022-08-07T15:04:16;0.30;;;0.30;;
27644;SDS011;15054;57.152;-2.118;2022-08-07T15:06:44;0.30;;;0.25;;
27644;SDS011;15054;57.152;-2.118;2022-08-07T15:09:14;1.17;;;0.20;;
27644;SDS011;15054;57.152;-2.118;2022-08-07T15:12:07;0.57;;;0.22;;
27644;SDS011;15054;57.152;-2.118;2022-08-07T15:14:54;0.28;;;0.20;;
27644;SDS011;15054;57.152;-2.118;2022-08-07T15:17:34;0.43;;;0.30;;
27644;SDS011;15054;57.152;-2.118;2022-08-07T15:20:23;0.63;;;0.22;;
27644;SDS011;15054;57.152;-2.118;2022-08-07T15:23:01;0.30;;;0.30;;
27644;SDS011;15054;57.152;-2.118;2022-08-07T15:25:48;0.10;;;0.10;;
27644;SDS011;15054;57.152;-2.118;2022-08-07T15:28:19;1.75;;;0.30;;
27644;SDS011;15054;57.152;-2.118;2022-08-07T15:31:10;1.23;;;0.20;;
27644;SDS011;15054;57.152;-2.118;2022-08-07T15:34:02;0.40;;;0.20;;
27644;SDS011;15054;57.152;-2.118;2022-08-07T15:36:40;1.65;;;0.30;;
27644;SDS011;15054;57.152;-2.118;2022-08-07T15:39:27;0.30;;;0.20;;
27644;SDS011;15054;57.152;-2.118;2022-08-07T15:42:35;0.57;;;0.30;;
27644;SDS011;15054;57.152;-2.118;2022-08-07T15:45:35;0.85;;;0.30;;
27644;SDS011;15054;57.152;-2.118;2022-08-07T15:48:25;1.70;;;0.40;;
27644;SDS011;15054;57.152;-2.118;2022-08-07T15:51:05;0.73;;;0.40;;
27644;SDS011;15054;57.152;-2.118;2022-08-07T15:53:55;0.82;;;0.52;;
27644;SDS011;15054;57.152;-2.118;2022-08-07T15:56:33;0.30;;;0.30;;
27644;SDS011;15054;57.152;-2.118;2022-08-07T15:59:14;1.08;;;0.40;;
27644;SDS011;15054;57.152;-2.118;2022-08-07T16:02:05;0.60;;;0.38;;
27644;SDS011;15054;57.152;-2.118;2022-08-07T16:07:09;1.90;;;0.40;;
27644;SDS011;15054;57.152;-2.118;2022-08-07T16:15:45;2.30;;;0.77;;
27644;SDS011;15054;57.152;-2.118;2022-08-07T16:19:02;1.88;;;0.50;;
27644;SDS011;15054;57.152;-2.118;2022-08-07T16:25:04;1.83;;;0.40;;
27644;SDS011;15054;57.152;-2.118;2022-08-07T16:31:38;1.17;;;0.57;;
27644;SDS011;15054;57.152;-2.118;2022-08-07T16:34:37;1.40;;;0.50;;
27644;SDS011;15054;57.152;-2.118;2022-08-07T16:43:02;0.50;;;0.30;;
27644;SDS011;15054;57.152;-2.118;2022-08-07T16:51:56;2.30;;;0.52;;
27644;SDS011;15054;57.152;-2.118;2022-08-07T16:54:59;2.00;;;0.40;;
27644;SDS011;15054;57.152;-2.118;2022-08-07T17:03:41;0.50;;;0.50;;
27644;SDS011;15054;57.152;-2.118;2022-08-07T17:09:17;0.53;;;0.30;;
27644;SDS011;15054;57.152;-2.118;2022-08-07T17:12:18;3.40;;;0.73;;
27644;SDS011;15054;57.152;-2.118;2022-08-07T17:21:00;0.30;;;0.30;;
27644;SDS011;15054;57.152;-2.118;2022-08-07T17:26:59;1.20;;;0.50;;
27644;SDS011;15054;57.152;-2.118;2022-08-07T17:36:02;2.08;;;0.35;;
27644;SDS011;15054;57.152;-2.118;2022-08-07T17:39:02;2.30;;;0.35;;
27644;SDS011;15054;57.152;-2.118;2022-08-07T17:41:50;0.55;;;0.20;;
27644;SDS011;15054;57.152;-2.118;2022-08-07T17:47:17;1.55;;;0.55;;
27644;SDS011;15054;57.152;-2.118;2022-08-07T17:50:19;0.60;;;0.20;;
27644;SDS011;15054;57.152;-2.118;2022-08-07T17:52:57;1.20;;;0.40;;
27644;SDS011;15054;57.152;-2.118;2022-08-07T17:55:37;1.10;;;0.20;;
27644;SDS011;15054;57.152;-2.118;2022-08-07T18:07:15;0.38;;;0.10;;
27644;SDS011;15054;57.152;-2.118;2022-08-07T18:19:12;0.75;;;0.20;;
27644;SDS011;15054;57.152;-2.118;2022-08-07T18:22:09;0.20;;;0.20;;
27644;SDS011;15054;57.152;-2.118;2022-08-07T18:24:55;0.10;;;0.10;;
27644;SDS011;15054;57.152;-2.118;2022-08-07T18:31:07;1.20;;;0.20;;
27644;SDS011;15054;57.152;-2.118;2022-08-07T18:37:16;0.32;;;0.20;;
27644;SDS011;15054;57.152;-2.118;2022-08-07T18:46:53;0.10;;;0.10;;
27644;SDS011;15054;57.152;-2.118;2022-08-07T18:49:38;1.48;;;0.22;;
27644;SDS011;15054;57.152;-2.118;2022-08-07T18:55:36;0.35;;;0.30;;
27644;SDS011;15054;57.152;-2.118;2022-08-07T18:58:37;1.02;;;0.32;;
27644;SDS011;15054;57.152;-2.118;2022-08-07T19:04:34;0.68;;;0.30;;
27644;SDS011;15054;57.152;-2.118;2022-08-07T19:21:47;0.47;;;0.47;;
27644;SDS011;15054;57.152;-2.118;2022-08-07T19:27:03;0.40;;;0.32;;
27644;SDS011;15054;57.152;-2.118;2022-08-07T19:29:56;0.75;;;0.38;;
27644;SDS011;15054;57.152;-2.118;2022-08-07T19:32:50;0.38;;;0.38;;
27644;SDS011;15054;57.152;-2.118;2022-08-07T19:35:25;1.20;;;0.40;;
27644;SDS011;15054;57.152;-2.118;2022-08-07T19:38:00;1.00;;;0.52;;
27644;SDS011;15054;57.152;-2.118;2022-08-07T19:40:42;2.13;;;0.50;;
27644;SDS011;15054;57.152;-2.118;2022-08-07T19:43:20;2.72;;;0.70;;
27644;SDS011;15054;57.152;-2.118;2022-08-07T19:46:11;0.68;;;0.40;;
27644;SDS011;15054;57.152;-2.118;2022-08-07T19:48:50;0.65;;;0.40;;
27644;SDS011;15054;57.152;-2.118;2022-08-07T19:51:24;0.63;;;0.63;;
27644;SDS011;15054;57.152;-2.118;2022-08-07T19:54:14;0.47;;;0.35;;
27644;SDS011;15054;57.152;-2.118;2022-08-07T19:57:03;2.00;;;0.77;;
27644;SDS011;15054;57.152;-2.118;2022-08-07T19:59:52;0.57;;;0.47;;
27644;SDS011;15054;57.152;-2.118;2022-08-07T20:02:37;2.38;;;0.60;;
27644;SDS011;15054;57.152;-2.118;2022-08-07T20:05:20;1.02;;;0.40;;
27644;SDS011;15054;57.152;-2.118;2022-08-07T20:07:58;1.20;;;0.73;;
27644;SDS011;15054;57.152;-2.118;2022-08-07T20:10:28;1.52;;;0.65;;
27644;SDS011;15054;57.152;-2.118;2022-08-07T20:13:27;0.50;;;0.50;;
27644;SDS011;15054;57.152;-2.118;2022-08-07T20:16:10;0.93;;;0.50;;
27644;SDS011;15054;57.152;-2.118;2022-08-07T20:19:01;0.65;;;0.60;;
27644;SDS011;15054;57.152;-2.118;2022-08-07T20:21:36;0.40;;;0.40;;
27644;SDS011;15054;57.152;-2.118;2022-08-07T20:24:18;1.13;;;0.68;;
27644;SDS011;15054;57.152;-2.118;2022-08-07T20:26:48;2.05;;;0.70;;
27644;SDS011;15054;57.152;-2.118;2022-08-07T20:29:22;0.60;;;0.50;;
27644;SDS011;15054;57.152;-2.118;2022-08-07T20:32:11;2.05;;;0.60;;
27644;SDS011;15054;57.152;-2.118;2022-08-07T20:34:50;2.75;;;0.50;;
27644;SDS011;15054;57.152;-2.118;2022-08-07T20:37:35;1.02;;;0.50;;